createdAt,value
2019-02-05T00:01:21.437Z,5.83
2019-02-05T00:03:48.895Z,5.15
2019-02-05T00:06:16.268Z,5.12
2019-02-05T00:08:43.790Z,6.62
2019-02-05T00:11:11.004Z,6.50
2019-02-05T00:13:38.449Z,6.80
2019-02-05T00:16:05.829Z,6.58
2019-02-05T00:18:32.876Z,6.55
2019-02-05T00:21:00.153Z,6.90
2019-02-05T00:23:27.441Z,7.00
2019-02-05T00:26:05.661Z,6.75
2019-02-05T00:28:23.744Z,7.58
2019-02-05T00:30:50.857Z,7.30
2019-02-05T00:33:17.970Z,7.00
2019-02-05T00:35:47.342Z,7.42
2019-02-05T00:38:14.513Z,7.37
2019-02-05T00:40:41.703Z,7.70
2019-02-05T00:43:10.128Z,8.20
2019-02-05T00:45:38.538Z,6.72
2019-02-05T00:48:07.025Z,8.28
2019-02-05T00:50:35.158Z,8.38
2019-02-05T00:53:03.433Z,7.65
2019-02-05T00:55:31.637Z,8.43
2019-02-05T00:58:00.484Z,8.45
2019-02-05T01:00:29.472Z,8.10
2019-02-05T01:02:58.830Z,7.90
2019-02-05T01:05:27.382Z,9.50
2019-02-05T01:07:58.545Z,8.00
2019-02-05T01:10:26.295Z,9.00
2019-02-05T01:12:55.048Z,10.65
2019-02-05T01:15:24.157Z,9.55
2019-02-05T01:17:53.128Z,9.60
2019-02-05T01:20:21.846Z,10.28
2019-02-05T01:22:51.748Z,10.25
2019-02-05T01:25:20.151Z,10.43
2019-02-05T01:27:49.217Z,9.55
2019-02-05T01:30:21.578Z,10.08
2019-02-05T01:32:50.418Z,10.90
2019-02-05T01:35:19.041Z,9.58
2019-02-05T01:37:48.606Z,8.90
2019-02-05T01:40:18.916Z,9.95
2019-02-05T01:42:47.535Z,9.70
2019-02-05T01:45:16.740Z,9.08
2019-02-05T01:47:45.617Z,9.88
2019-02-05T01:50:16.545Z,10.18
2019-02-05T01:52:45.417Z,8.98
2019-02-05T01:55:14.318Z,9.55
2019-02-05T01:57:43.263Z,9.40
2019-02-05T02:00:18.749Z,10.88
2019-02-05T02:02:47.698Z,10.98
2019-02-05T02:05:16.622Z,10.20
2019-02-05T02:07:44.846Z,10.80
2019-02-05T02:10:16.170Z,9.88
2019-02-05T02:12:45.365Z,9.73
2019-02-05T02:15:14.542Z,10.93
2019-02-05T02:17:43.227Z,10.63
2019-02-05T02:20:13.865Z,9.55
2019-02-05T02:22:42.366Z,9.75
2019-02-05T02:25:11.412Z,10.15
2019-02-05T02:27:39.895Z,9.40
2019-02-05T02:30:15.285Z,10.23
2019-02-05T02:32:43.989Z,10.40
2019-02-05T02:35:12.378Z,9.48
2019-02-05T02:37:40.819Z,10.60
2019-02-05T02:40:10.377Z,9.65
2019-02-05T02:42:43.383Z,11.63
2019-02-05T02:45:12.233Z,10.63
2019-02-05T02:47:40.944Z,9.15
2019-02-05T02:50:11.337Z,10.30
2019-02-05T02:52:39.662Z,9.53
2019-02-05T02:55:09.323Z,10.78
2019-02-05T02:57:37.914Z,10.28
2019-02-05T03:00:09.378Z,9.65
2019-02-05T03:02:37.598Z,10.10
2019-02-05T03:05:08.801Z,9.18
2019-02-05T03:07:37.261Z,9.25
2019-02-05T03:10:10.059Z,8.70
2019-02-05T03:12:38.462Z,9.73
2019-02-05T03:15:07.519Z,9.83
2019-02-05T03:17:36.045Z,8.38
2019-02-05T03:20:04.745Z,8.68
2019-02-05T03:22:33.741Z,10.58
2019-02-05T03:25:02.700Z,9.90
2019-02-05T03:27:31.542Z,9.50
2019-02-05T03:29:59.962Z,10.05
2019-02-05T03:32:28.389Z,8.80
2019-02-05T03:34:57.097Z,9.70
2019-02-05T03:37:25.446Z,9.23
2019-02-05T03:39:53.730Z,11.50
2019-02-05T03:42:21.969Z,9.80
2019-02-05T03:44:50.116Z,10.18
2019-02-05T03:47:18.557Z,9.50
2019-02-05T03:49:46.798Z,9.58
2019-02-05T03:52:19.583Z,9.15
2019-02-05T03:55:14.151Z,9.73
2019-02-05T03:58:12.081Z,9.78
2019-02-05T04:01:15.833Z,9.05
2019-02-05T04:04:17.868Z,9.43
2019-02-05T04:07:05.737Z,9.13
2019-02-05T04:10:07.370Z,8.63
2019-02-05T04:13:07.802Z,8.33
2019-02-05T04:16:04.207Z,9.10
2019-02-05T04:19:20.274Z,7.95
2019-02-05T04:22:30.797Z,8.43
2019-02-05T04:25:41.681Z,7.25
2019-02-05T04:28:42.194Z,7.65
2019-02-05T04:32:00.858Z,8.00
2019-02-05T04:35:03.399Z,8.45
2019-02-05T04:38:20.643Z,8.60
2019-02-05T04:41:02.574Z,7.95
2019-02-05T04:43:53.939Z,8.13
2019-02-05T04:46:35.273Z,8.10
2019-02-05T04:50:03.697Z,8.25
2019-02-05T04:53:06.955Z,8.88
2019-02-05T04:56:17.738Z,8.68
2019-02-05T04:59:15.765Z,9.15
2019-02-05T05:02:28.499Z,9.33
2019-02-05T05:05:47.099Z,8.35
2019-02-05T05:09:14.571Z,10.15
2019-02-05T05:11:41.949Z,8.43
2019-02-05T05:14:09.565Z,9.10
2019-02-05T05:16:37.763Z,8.80
2019-02-05T05:19:05.624Z,9.20
2019-02-05T05:21:36.467Z,8.90
2019-02-05T05:24:03.864Z,9.90
2019-02-05T05:26:31.456Z,9.40
2019-02-05T05:28:59.080Z,9.35
2019-02-05T05:31:27.042Z,9.13
2019-02-05T05:33:55.448Z,10.10
2019-02-05T05:36:22.833Z,11.12
2019-02-05T05:38:49.957Z,9.93
2019-02-05T05:41:17.637Z,10.10
2019-02-05T05:43:44.893Z,11.00
2019-02-05T05:46:12.333Z,10.00
2019-02-05T05:48:39.756Z,11.05
2019-02-05T05:51:08.769Z,10.10
2019-02-05T05:53:35.868Z,10.28
2019-02-05T05:56:06.926Z,11.22
2019-02-05T05:58:34.681Z,10.53
2019-02-05T06:01:02.531Z,10.65
2019-02-05T06:03:29.646Z,11.25
2019-02-05T06:05:56.839Z,11.15
2019-02-05T06:08:24.241Z,11.60
2019-02-05T06:10:51.795Z,11.70
2019-02-05T06:13:19.149Z,12.15
2019-02-05T06:15:46.070Z,11.00
2019-02-05T06:18:13.952Z,11.88
2019-02-05T06:20:41.566Z,13.80
2019-02-05T06:23:09.000Z,12.35
2019-02-05T06:25:37.536Z,13.55
2019-02-05T06:28:04.816Z,13.50
2019-02-05T06:30:33.279Z,12.70
2019-02-05T06:33:02.222Z,14.23
2019-02-05T06:35:30.910Z,14.18
2019-02-05T06:38:03.596Z,13.15
2019-02-05T06:40:31.836Z,12.28
2019-02-05T06:43:00.433Z,14.75
2019-02-05T06:45:28.613Z,15.15
2019-02-05T06:47:56.728Z,14.50
2019-02-05T06:50:26.300Z,14.98
2019-02-05T06:52:55.005Z,15.23
2019-02-05T06:55:23.336Z,15.63
2019-02-05T06:57:51.805Z,16.10
2019-02-05T07:00:20.889Z,14.00
2019-02-05T07:02:53.709Z,15.15
2019-02-05T07:05:26.097Z,14.87
2019-02-05T07:07:53.417Z,16.00
2019-02-05T07:10:20.872Z,17.52
2019-02-05T07:12:48.686Z,15.10
2019-02-05T07:15:17.217Z,16.57
2019-02-05T07:17:49.659Z,16.05
2019-02-05T07:20:15.651Z,16.50
2019-02-05T07:22:43.952Z,16.02
2019-02-05T07:25:13.788Z,17.95
2019-02-05T07:27:41.908Z,17.52
2019-02-05T07:30:15.537Z,18.12
2019-02-05T07:32:44.179Z,18.62
2019-02-05T07:35:12.449Z,18.52
2019-02-05T07:37:40.821Z,17.10
2019-02-05T07:40:11.346Z,18.05
2019-02-05T07:42:40.704Z,16.75
2019-02-05T07:45:11.165Z,18.82
2019-02-05T07:47:39.830Z,18.15
2019-02-05T07:50:11.650Z,18.75
2019-02-05T07:52:40.656Z,19.67
2019-02-05T07:55:09.532Z,18.92
2019-02-05T07:57:37.901Z,20.08
2019-02-05T08:00:12.492Z,18.85
2019-02-05T08:02:39.800Z,18.57
2019-02-05T08:05:10.563Z,20.23
2019-02-05T08:07:38.760Z,20.12
2019-02-05T08:10:10.952Z,20.30
2019-02-05T08:12:38.027Z,20.68
2019-02-05T08:15:08.264Z,22.07
2019-02-05T08:17:37.218Z,22.07
2019-02-05T08:20:05.901Z,20.48
2019-02-05T08:22:34.057Z,20.77
2019-02-05T08:25:02.372Z,19.30
2019-02-05T08:27:30.459Z,19.70
2019-02-05T08:29:58.717Z,20.60
2019-02-05T08:32:26.724Z,21.80
2019-02-05T08:34:55.420Z,22.02
2019-02-05T08:37:23.443Z,19.62
2019-02-05T08:39:51.576Z,23.45
2019-02-05T08:42:20.208Z,22.02
2019-02-05T08:44:48.336Z,21.90
2019-02-05T08:47:16.343Z,22.82
2019-02-05T08:49:44.440Z,22.42
2019-02-05T08:52:12.553Z,23.67
2019-02-05T08:54:40.853Z,22.15
2019-02-05T08:57:08.871Z,24.32
2019-02-05T08:59:36.993Z,21.57
2019-02-05T09:02:05.694Z,23.10
2019-02-05T09:04:33.886Z,23.00
2019-02-05T09:07:02.211Z,22.60
2019-02-05T09:09:30.450Z,20.92
2019-02-05T09:12:00.238Z,21.07
2019-02-05T09:14:31.160Z,24.95
2019-02-05T09:16:59.589Z,22.70
2019-02-05T09:19:27.745Z,21.70
2019-02-05T09:22:02.741Z,21.90
2019-02-05T09:24:30.780Z,21.62
2019-02-05T09:26:59.009Z,21.87
2019-02-05T09:29:33.490Z,23.12
2019-02-05T09:31:57.153Z,21.50
2019-02-05T09:34:30.056Z,20.12
2019-02-05T09:36:58.231Z,18.00
2019-02-05T09:39:26.282Z,20.48
2019-02-05T09:41:54.488Z,21.25
2019-02-05T09:44:23.482Z,20.92
2019-02-05T09:46:56.398Z,20.72
2019-02-05T09:49:24.571Z,20.35
2019-02-05T09:51:52.775Z,19.70
2019-02-05T09:54:21.281Z,21.55
2019-02-05T09:56:49.527Z,18.67
2019-02-05T09:59:25.782Z,19.50
2019-02-05T10:01:52.706Z,18.80
2019-02-05T10:04:19.761Z,18.02
2019-02-05T10:06:50.004Z,19.30
2019-02-05T10:09:18.079Z,21.00
2019-02-05T10:11:48.186Z,17.37
2019-02-05T10:14:16.426Z,17.98
2019-02-05T10:16:45.060Z,18.92
2019-02-05T10:19:13.509Z,19.00
2019-02-05T10:21:41.669Z,19.92
2019-02-05T10:24:12.108Z,14.30
2019-02-05T10:26:40.190Z,16.82
2019-02-05T10:29:08.401Z,16.60
2019-02-05T10:31:36.853Z,15.90
2019-02-05T10:34:05.072Z,17.02
2019-02-05T10:36:34.113Z,16.37
2019-02-05T10:39:07.444Z,14.40
2019-02-05T10:41:35.676Z,15.40
2019-02-05T10:44:04.280Z,14.73
2019-02-05T10:46:32.428Z,14.55
2019-02-05T10:49:05.161Z,15.32
2019-02-05T10:51:33.732Z,16.60
2019-02-05T10:54:01.672Z,13.88
2019-02-05T10:56:29.622Z,14.40
2019-02-05T10:59:01.621Z,15.72
2019-02-05T11:01:30.333Z,15.78
2019-02-05T11:03:58.565Z,16.65
2019-02-05T11:06:26.944Z,14.95
2019-02-05T11:08:55.275Z,15.03
2019-02-05T11:11:24.675Z,15.72
2019-02-05T11:13:56.831Z,19.10
2019-02-05T11:16:25.137Z,22.90
2019-02-05T11:18:53.531Z,17.92
2019-02-05T11:22:03.465Z,18.05
2019-02-05T11:24:31.594Z,17.92
2019-02-05T11:27:00.096Z,16.12
2019-02-05T11:29:28.151Z,16.50
2019-02-05T11:31:56.477Z,14.75
2019-02-05T11:34:25.288Z,13.65
2019-02-05T11:36:53.498Z,15.20
2019-02-05T11:39:23.725Z,13.30
2019-02-05T11:41:50.845Z,15.58
2019-02-05T11:44:19.373Z,14.38
2019-02-05T11:46:47.753Z,17.67
2019-02-05T11:49:16.376Z,14.58
2019-02-05T11:51:47.744Z,17.30
2019-02-05T11:54:16.338Z,13.60
2019-02-05T11:56:44.544Z,13.32
2019-02-05T11:59:13.065Z,12.98
2019-02-05T12:01:41.805Z,12.65
2019-02-05T12:04:13.371Z,12.82
2019-02-05T12:06:41.922Z,13.08
2019-02-05T12:09:22.602Z,13.32
2019-02-05T12:11:53.970Z,13.10
2019-02-05T12:14:22.584Z,12.50
2019-02-05T12:16:50.921Z,13.95
2019-02-05T12:19:19.934Z,13.68
2019-02-05T12:21:48.498Z,14.55
2019-02-05T12:24:16.991Z,14.30
2019-02-05T12:26:46.090Z,14.05
2019-02-05T12:29:14.536Z,15.13
2019-02-05T12:31:43.234Z,13.62
2019-02-05T12:34:12.998Z,16.07
2019-02-05T12:36:43.563Z,15.10
2019-02-05T12:39:18.421Z,13.55
2019-02-05T12:41:47.108Z,14.47
2019-02-05T12:44:15.530Z,14.30
2019-02-05T12:46:44.142Z,15.80
2019-02-05T12:49:14.889Z,16.35
2019-02-05T12:51:43.343Z,15.85
2019-02-05T12:54:12.907Z,20.43
2019-02-05T12:56:41.225Z,16.40
2019-02-05T12:59:09.390Z,17.92
2019-02-05T13:01:41.023Z,15.85
2019-02-05T13:04:09.485Z,20.02
2019-02-05T13:06:37.655Z,18.00
2019-02-05T13:09:08.141Z,18.10
2019-02-05T13:11:36.699Z,18.75
2019-02-05T13:14:05.990Z,20.40
2019-02-05T13:16:34.377Z,19.70
2019-02-05T13:19:02.799Z,18.67
2019-02-05T13:21:31.438Z,18.00
2019-02-05T13:24:01.107Z,19.48
2019-02-05T13:26:32.022Z,19.10
2019-02-05T13:29:00.393Z,20.62
2019-02-05T13:31:28.516Z,20.50
2019-02-05T13:33:57.154Z,20.75
2019-02-05T13:36:25.424Z,21.60
2019-02-05T13:38:56.635Z,21.15
2019-02-05T13:41:25.338Z,20.82
2019-02-05T13:43:54.254Z,23.38
2019-02-05T13:46:23.027Z,23.17
2019-02-05T13:48:51.716Z,21.12
2019-02-05T13:51:21.354Z,22.85
2019-02-05T13:53:51.005Z,21.05
2019-02-05T13:56:19.379Z,19.55
2019-02-05T13:58:47.841Z,19.92
2019-02-05T14:01:19.921Z,20.15
2019-02-05T14:03:47.378Z,19.30
2019-02-05T14:06:15.664Z,21.30
2019-02-05T14:08:44.544Z,22.13
2019-02-05T14:11:13.757Z,20.02
2019-02-05T14:13:46.563Z,20.77
2019-02-05T14:16:15.042Z,20.45
2019-02-05T14:18:54.668Z,18.82
2019-02-05T14:21:15.046Z,20.25
2019-02-05T14:23:42.493Z,21.20
2019-02-05T14:26:15.681Z,20.17
2019-02-05T14:28:44.460Z,19.15
2019-02-05T14:31:12.903Z,20.08
2019-02-05T14:33:41.312Z,20.57
2019-02-05T14:36:09.657Z,19.98
2019-02-05T14:38:42.678Z,20.43
2019-02-05T14:41:11.334Z,18.50
2019-02-05T14:43:39.753Z,19.75
2019-02-05T14:46:08.134Z,20.97
2019-02-05T14:48:36.274Z,20.40
2019-02-05T14:51:09.527Z,21.02
2019-02-05T14:53:37.817Z,19.37
2019-02-05T14:56:05.900Z,19.92
2019-02-05T14:58:34.585Z,20.15
2019-02-05T15:01:03.276Z,20.27
2019-02-05T15:03:37.289Z,21.20
2019-02-05T15:06:06.203Z,19.77
2019-02-05T15:08:34.844Z,19.45
2019-02-05T15:11:04.172Z,20.23
2019-02-05T15:13:34.560Z,18.32
2019-02-05T15:16:06.900Z,18.80
2019-02-05T15:18:35.801Z,19.02
2019-02-05T15:21:04.431Z,20.70
2019-02-05T15:23:33.146Z,19.62
2019-02-05T15:26:04.749Z,19.55
2019-02-05T15:28:33.284Z,19.80
2019-02-05T15:31:01.886Z,19.20
2019-02-05T15:33:46.960Z,21.68
2019-02-05T15:36:17.541Z,21.12
2019-02-05T15:38:46.198Z,20.43
2019-02-05T15:41:16.171Z,20.85
2019-02-05T15:43:46.567Z,21.00
2019-02-05T15:46:15.411Z,24.40
2019-02-05T15:48:44.142Z,22.40
2019-02-05T15:51:12.629Z,21.07
2019-02-05T15:53:41.041Z,20.35
2019-02-05T15:56:10.437Z,21.33
2019-02-05T15:58:39.017Z,20.25
2019-02-05T16:01:07.647Z,21.50
2019-02-05T16:03:36.804Z,22.27
2019-02-05T16:06:05.138Z,22.15
2019-02-05T16:08:36.478Z,21.97
2019-02-05T16:11:04.982Z,21.73
2019-02-05T16:13:33.345Z,20.15
2019-02-05T16:16:02.049Z,22.60
2019-02-05T16:18:30.093Z,21.95
2019-02-05T16:20:58.597Z,22.22
2019-02-05T16:23:27.381Z,21.93
2019-02-05T16:25:55.822Z,22.40
2019-02-05T16:28:24.823Z,23.45
2019-02-05T16:30:53.482Z,22.82
2019-02-05T16:33:22.316Z,21.45
2019-02-05T16:35:51.013Z,23.77
2019-02-05T16:38:19.743Z,22.60
2019-02-05T16:40:48.626Z,23.18
2019-02-05T16:43:17.404Z,22.93
2019-02-05T16:45:46.158Z,21.80
2019-02-05T16:48:14.588Z,23.92
2019-02-05T16:50:44.077Z,23.62
2019-02-05T16:53:13.055Z,20.80
2019-02-05T16:55:41.649Z,25.40
2019-02-05T16:58:10.166Z,24.87
2019-02-05T17:00:38.670Z,31.40
2019-02-05T17:03:07.645Z,23.35
2019-02-05T17:05:37.445Z,25.80
2019-02-05T17:08:06.260Z,21.00
2019-02-05T17:10:34.550Z,22.13
2019-02-05T17:13:03.059Z,22.82
2019-02-05T17:15:31.701Z,26.90
2019-02-05T17:18:00.445Z,24.12
2019-02-05T17:20:29.518Z,21.90
2019-02-05T17:23:00.467Z,21.85
2019-02-05T17:25:28.753Z,22.73
2019-02-05T17:27:58.466Z,23.47
2019-02-05T17:30:29.389Z,25.08
2019-02-05T17:32:57.841Z,22.27
2019-02-05T17:35:26.392Z,22.30
2019-02-05T17:37:55.018Z,21.30
2019-02-05T17:40:24.437Z,21.68
2019-02-05T17:42:53.478Z,21.57
2019-02-05T17:45:27.274Z,21.25
2019-02-05T17:47:56.209Z,21.07
2019-02-05T17:50:23.855Z,24.55
2019-02-05T17:52:50.994Z,19.40
2019-02-05T17:55:19.698Z,20.08
2019-02-05T17:57:48.456Z,20.10
2019-02-05T18:00:19.528Z,20.10
2019-02-05T18:02:51.498Z,20.82
2019-02-05T18:05:18.434Z,18.17
2019-02-05T18:07:46.661Z,21.97
2019-02-05T18:10:16.985Z,21.45
2019-02-05T18:12:45.669Z,23.00
2019-02-05T18:15:21.996Z,19.02
2019-02-05T18:17:50.461Z,21.93
2019-02-05T18:20:18.513Z,20.25
2019-02-05T18:22:46.789Z,19.67
2019-02-05T18:25:18.350Z,19.05
2019-02-05T18:27:46.575Z,26.90
2019-02-05T18:30:23.409Z,20.65
2019-02-05T18:33:02.845Z,20.37
2019-02-05T18:35:20.657Z,19.25
2019-02-05T18:37:48.106Z,19.95
2019-02-05T18:40:17.351Z,21.15
2019-02-05T18:42:45.408Z,18.82
2019-02-05T18:45:14.527Z,21.00
2019-02-05T18:47:42.766Z,18.15
2019-02-05T18:50:14.171Z,19.20
2019-02-05T18:52:42.697Z,17.20
2019-02-05T18:55:10.965Z,19.57
2019-02-05T18:57:41.309Z,17.32
2019-02-05T19:00:21.618Z,17.10
2019-02-05T19:02:49.202Z,17.15
2019-02-05T19:05:16.789Z,18.27
2019-02-05T19:07:44.369Z,16.82
2019-02-05T19:10:12.839Z,17.57
2019-02-05T19:12:43.953Z,15.05
2019-02-05T19:15:17.343Z,18.30
2019-02-05T19:17:45.803Z,21.17
2019-02-05T19:20:14.257Z,18.52
2019-02-05T19:22:42.793Z,15.95
2019-02-05T19:25:18.725Z,17.12
2019-02-05T19:27:47.002Z,17.10
2019-02-05T19:30:15.426Z,18.15
2019-02-05T19:32:43.630Z,18.00
2019-02-05T19:35:11.771Z,17.85
2019-02-05T19:37:40.384Z,16.93
2019-02-05T19:40:08.641Z,19.20
2019-02-05T19:42:36.909Z,17.67
2019-02-05T19:45:19.915Z,19.30
2019-02-05T19:47:48.572Z,20.35
2019-02-05T19:50:16.969Z,19.15
2019-02-05T19:52:45.965Z,17.32
2019-02-05T19:55:14.273Z,17.80
2019-02-05T19:57:46.393Z,17.40
2019-02-05T20:00:14.762Z,20.20
2019-02-05T20:02:42.907Z,22.80
2019-02-05T20:05:11.282Z,22.00
2019-02-05T20:07:39.543Z,17.80
2019-02-05T20:10:09.461Z,20.57
2019-02-05T20:12:39.529Z,21.30
2019-02-05T20:15:08.388Z,24.35
2019-02-05T20:17:36.864Z,26.70
2019-02-05T20:20:05.804Z,22.50
2019-02-05T20:22:33.969Z,22.55
2019-02-05T20:25:02.611Z,28.45
2019-02-05T20:27:31.110Z,24.90
2019-02-05T20:29:59.291Z,28.77
2019-02-05T20:32:28.268Z,26.87
2019-02-05T20:34:56.593Z,23.65
2019-02-05T20:37:24.770Z,24.60
2019-02-05T20:39:52.960Z,23.07
2019-02-05T20:42:21.553Z,24.63
2019-02-05T20:44:49.805Z,29.27
2019-02-05T20:47:17.921Z,27.87
2019-02-05T20:49:46.265Z,20.12
2019-02-05T20:52:14.334Z,20.40
2019-02-05T20:54:43.049Z,21.60
2019-02-05T20:57:11.178Z,19.15
2019-02-05T20:59:39.400Z,19.20
2019-02-05T21:02:08.111Z,18.82
2019-02-05T21:04:47.942Z,21.00
2019-02-05T21:07:07.886Z,21.80
2019-02-05T21:09:36.819Z,20.43
2019-02-05T21:12:05.199Z,20.25
2019-02-05T21:14:33.838Z,21.42
2019-02-05T21:17:02.403Z,20.27
2019-02-05T21:19:30.869Z,20.48
2019-02-05T21:21:59.561Z,20.90
2019-02-05T21:24:28.230Z,22.52
2019-02-05T21:26:56.550Z,20.77
2019-02-05T21:29:25.401Z,21.15
2019-02-05T21:31:53.629Z,21.40
2019-02-05T21:34:21.914Z,19.52
2019-02-05T21:36:50.539Z,19.55
2019-02-05T21:39:18.653Z,18.67
2019-02-05T21:41:46.576Z,18.12
2019-02-05T21:44:14.841Z,19.85
2019-02-05T21:46:43.297Z,18.95
2019-02-05T21:49:11.900Z,18.48
2019-02-05T21:51:41.906Z,19.07
2019-02-05T21:54:10.353Z,19.65
2019-02-05T21:56:38.606Z,18.92
2019-02-05T21:59:06.877Z,20.97
2019-02-05T22:01:35.160Z,18.87
2019-02-05T22:04:03.764Z,20.10
2019-02-05T22:06:32.060Z,23.07
2019-02-05T22:09:00.766Z,22.40
2019-02-05T22:11:29.594Z,21.17
2019-02-05T22:13:57.496Z,21.30
2019-02-05T22:16:25.719Z,19.82
2019-02-05T22:18:53.961Z,21.23
2019-02-05T22:21:22.293Z,20.15
2019-02-05T22:23:51.657Z,18.70
2019-02-05T22:26:20.136Z,21.35
2019-02-05T22:28:48.713Z,19.20
2019-02-05T22:31:16.911Z,19.67
2019-02-05T22:33:45.238Z,19.65
2019-02-05T22:36:13.565Z,23.10
2019-02-05T22:38:41.597Z,23.55
2019-02-05T22:41:09.821Z,21.65
2019-02-05T22:43:37.937Z,20.32
2019-02-05T22:46:06.769Z,18.62
2019-02-05T22:48:35.195Z,18.82
2019-02-05T22:51:03.218Z,19.73
2019-02-05T22:53:33.709Z,19.15
2019-02-05T22:56:01.760Z,18.95
2019-02-05T22:58:29.794Z,18.55
2019-02-05T23:01:24.266Z,17.25
2019-02-05T23:03:57.670Z,17.52
2019-02-05T23:07:10.931Z,19.67
2019-02-05T23:10:35.120Z,18.48
2019-02-05T23:13:08.676Z,18.35
2019-02-05T23:15:40.585Z,19.27
2019-02-05T23:18:09.309Z,18.65
2019-02-05T23:20:37.580Z,18.90
2019-02-05T23:23:05.809Z,20.08
2019-02-05T23:25:34.461Z,17.87
2019-02-05T23:28:03.344Z,19.87
2019-02-05T23:30:31.712Z,19.87
2019-02-05T23:33:00.876Z,18.05
2019-02-05T23:35:32.430Z,18.12
2019-02-05T23:37:58.686Z,19.23
2019-02-05T23:40:27.082Z,17.85
2019-02-05T23:42:56.103Z,18.55
2019-02-05T23:45:24.334Z,19.05
2019-02-05T23:47:52.695Z,18.77
2019-02-05T23:50:21.210Z,19.10
2019-02-05T23:52:49.879Z,18.15
2019-02-05T23:55:19.219Z,17.37
2019-02-05T23:57:50.837Z,18.12
